createdAt,value
2023-03-06T00:01:43.895Z,1.74
2023-03-06T00:04:10.252Z,1.75
2023-03-06T00:06:36.598Z,1.73
2023-03-06T00:09:02.839Z,1.69
2023-03-06T00:11:29.056Z,1.76
2023-03-06T00:13:55.300Z,1.72
2023-03-06T00:16:21.622Z,1.77
2023-03-06T00:18:47.975Z,1.80
2023-03-06T00:21:14.246Z,1.78
2023-03-06T00:23:40.484Z,1.72
2023-03-06T00:26:06.716Z,1.71
2023-03-06T00:28:33.007Z,1.68
2023-03-06T00:30:59.306Z,1.69
2023-03-06T00:33:25.571Z,1.65
2023-03-06T00:35:52.053Z,1.64
2023-03-06T00:38:18.400Z,1.68
2023-03-06T00:40:44.668Z,1.66
2023-03-06T00:43:11.097Z,1.64
2023-03-06T00:45:37.502Z,1.68
2023-03-06T00:48:03.820Z,1.60
2023-03-06T00:50:30.089Z,1.62
2023-03-06T00:52:56.382Z,1.57
2023-03-06T00:55:22.664Z,1.57
2023-03-06T00:57:48.905Z,1.60
2023-03-06T01:00:15.180Z,1.62
2023-03-06T01:02:41.489Z,1.66
2023-03-06T01:05:07.736Z,1.71
2023-03-06T01:07:34.020Z,1.72
2023-03-06T01:10:00.341Z,1.64
2023-03-06T01:12:26.588Z,1.64
2023-03-06T01:14:52.821Z,1.53
2023-03-06T01:17:19.080Z,1.58
2023-03-06T01:19:45.313Z,1.63
2023-03-06T01:22:11.545Z,1.62
2023-03-06T01:24:37.788Z,1.49
2023-03-06T01:27:04.012Z,1.25
2023-03-06T01:29:30.317Z,1.34
2023-03-06T01:31:56.641Z,1.40
2023-03-06T01:34:22.941Z,1.42
2023-03-06T01:36:50.263Z,1.43
2023-03-06T01:39:16.510Z,1.38
2023-03-06T01:41:43.083Z,1.42
2023-03-06T01:44:09.414Z,1.39
2023-03-06T01:46:35.679Z,1.33
2023-03-06T01:49:01.931Z,1.32
2023-03-06T01:51:28.183Z,1.30
2023-03-06T01:53:54.463Z,1.25
2023-03-06T01:56:20.705Z,1.14
2023-03-06T01:58:46.939Z,1.07
2023-03-06T02:01:13.279Z,1.15
2023-03-06T02:03:39.588Z,1.17
2023-03-06T02:06:05.837Z,1.19
2023-03-06T02:08:32.092Z,1.15
2023-03-06T02:10:58.389Z,1.17
2023-03-06T02:13:24.674Z,1.18
2023-03-06T02:15:50.928Z,1.24
2023-03-06T02:18:17.216Z,1.26
2023-03-06T02:20:43.499Z,1.25
2023-03-06T02:23:09.751Z,1.19
2023-03-06T02:25:35.976Z,1.15
2023-03-06T02:28:02.241Z,1.16
2023-03-06T02:30:28.508Z,1.15
2023-03-06T02:32:54.764Z,1.14
2023-03-06T02:35:21.076Z,1.09
2023-03-06T02:37:47.380Z,1.07
2023-03-06T02:40:13.644Z,1.04
2023-03-06T02:42:39.918Z,1.02
2023-03-06T02:45:06.227Z,0.99
2023-03-06T02:47:32.521Z,0.96
2023-03-06T02:49:58.767Z,0.96
2023-03-06T02:52:25.040Z,0.94
2023-03-06T02:54:51.299Z,0.99
2023-03-06T02:57:17.570Z,0.98
2023-03-06T02:59:43.860Z,0.93
2023-03-06T03:02:10.141Z,0.97
2023-03-06T03:04:36.502Z,0.95
2023-03-06T03:07:02.804Z,0.98
2023-03-06T03:09:29.206Z,1.00
2023-03-06T03:11:56.687Z,0.97
2023-03-06T03:14:23.169Z,0.96
2023-03-06T03:16:49.432Z,0.93
2023-03-06T03:19:17.324Z,0.92
2023-03-06T03:21:43.631Z,0.92
2023-03-06T03:24:09.898Z,0.89
2023-03-06T03:26:36.157Z,0.88
2023-03-06T03:29:02.425Z,0.82
2023-03-06T03:31:28.746Z,0.89
2023-03-06T03:33:55.077Z,0.88
2023-03-06T03:36:21.315Z,0.88
2023-03-06T03:38:47.550Z,0.91
2023-03-06T03:41:13.844Z,0.91
2023-03-06T03:43:40.167Z,0.82
2023-03-06T03:46:06.522Z,0.90
2023-03-06T03:48:32.781Z,0.93
2023-03-06T03:50:59.033Z,0.94
2023-03-06T03:53:25.332Z,0.92
2023-03-06T03:55:51.584Z,0.89
2023-03-06T03:58:17.829Z,0.93
2023-03-06T04:00:44.066Z,0.92
2023-03-06T04:03:10.317Z,0.95
2023-03-06T04:05:36.584Z,0.94
2023-03-06T04:08:02.880Z,0.96
2023-03-06T04:10:29.128Z,0.87
2023-03-06T04:12:55.430Z,0.71
2023-03-06T04:15:21.756Z,0.76
2023-03-06T04:17:48.002Z,0.70
2023-03-06T04:20:14.282Z,0.73
2023-03-06T04:22:40.577Z,0.71
2023-03-06T04:25:06.841Z,0.77
2023-03-06T04:27:33.131Z,0.84
2023-03-06T04:29:59.430Z,0.83
2023-03-06T04:32:25.693Z,0.68
2023-03-06T04:34:51.965Z,0.66
2023-03-06T04:37:18.245Z,0.71
2023-03-06T04:39:44.497Z,0.74
2023-03-06T04:42:10.758Z,0.80
2023-03-06T04:44:37.046Z,0.92
2023-03-06T04:47:03.387Z,0.95
2023-03-06T04:49:29.668Z,0.97
2023-03-06T04:51:55.950Z,0.90
2023-03-06T04:54:22.234Z,0.92
2023-03-06T04:56:48.459Z,0.91
2023-03-06T04:59:14.744Z,0.95
2023-03-06T05:01:41.005Z,0.97
2023-03-06T05:04:07.263Z,0.95
2023-03-06T05:06:33.551Z,0.96
2023-03-06T05:08:59.845Z,0.98
2023-03-06T05:11:26.970Z,1.04
2023-03-06T05:13:53.216Z,1.12
2023-03-06T05:16:19.517Z,1.13
2023-03-06T05:18:45.773Z,1.17
2023-03-06T05:21:12.032Z,1.18
2023-03-06T05:23:38.322Z,1.16
2023-03-06T05:26:04.600Z,1.14
2023-03-06T05:28:30.834Z,1.17
2023-03-06T05:30:57.097Z,1.15
2023-03-06T05:33:23.375Z,1.08
2023-03-06T05:35:49.728Z,0.90
2023-03-06T05:38:16.098Z,0.95
2023-03-06T05:40:42.355Z,0.80
2023-03-06T05:43:08.635Z,0.96
2023-03-06T05:45:34.884Z,0.99
2023-03-06T05:48:01.141Z,0.76
2023-03-06T05:50:27.377Z,0.72
2023-03-06T05:52:53.614Z,0.78
2023-03-06T05:55:19.906Z,0.78
2023-03-06T05:57:46.184Z,0.82
2023-03-06T06:00:12.434Z,0.81
2023-03-06T06:02:38.741Z,0.80
2023-03-06T06:05:05.063Z,0.86
2023-03-06T06:07:31.324Z,0.87
2023-03-06T06:09:57.659Z,0.91
2023-03-06T06:12:23.939Z,0.95
2023-03-06T06:14:50.325Z,1.00
2023-03-06T06:17:16.591Z,0.96
2023-03-06T06:19:42.871Z,1.00
2023-03-06T06:22:09.105Z,0.97
2023-03-06T06:24:35.422Z,1.00
2023-03-06T06:27:03.855Z,0.92
2023-03-06T06:29:30.378Z,0.96
2023-03-06T06:31:56.652Z,1.02
2023-03-06T06:34:22.938Z,1.08
2023-03-06T06:36:51.002Z,1.14
2023-03-06T06:39:18.507Z,1.19
2023-03-06T06:42:02.398Z,1.27
2023-03-06T06:44:31.049Z,1.36
2023-03-06T06:49:43.568Z,1.41
2023-03-06T06:52:09.865Z,1.47
2023-03-06T06:54:36.127Z,1.50
2023-03-06T06:57:02.409Z,1.57
2023-03-06T06:59:28.679Z,1.63
2023-03-06T07:01:54.949Z,1.48
2023-03-06T07:04:21.288Z,1.52
2023-03-06T07:06:47.585Z,1.70
2023-03-06T07:09:13.870Z,1.81
2023-03-06T07:11:40.160Z,1.95
2023-03-06T07:14:06.467Z,2.06
2023-03-06T07:16:32.738Z,2.16
2023-03-06T07:18:59.012Z,2.27
2023-03-06T07:21:25.331Z,2.40
2023-03-06T07:23:53.076Z,2.44
2023-03-06T07:26:19.494Z,2.57
2023-03-06T07:28:52.262Z,2.58
2023-03-06T07:31:19.139Z,2.58
2023-03-06T07:33:45.768Z,2.59
2023-03-06T07:36:13.785Z,2.62
2023-03-06T07:38:40.215Z,2.72
2023-03-06T07:41:06.457Z,2.79
2023-03-06T07:43:32.752Z,2.93
2023-03-06T07:45:59.056Z,3.00
2023-03-06T07:48:25.389Z,3.13
2023-03-06T07:50:51.651Z,3.18
2023-03-06T07:53:17.968Z,3.22
2023-03-06T07:55:44.229Z,3.33
2023-03-06T07:58:10.469Z,3.29
2023-03-06T08:00:36.721Z,3.38
2023-03-06T08:03:03.076Z,3.55
2023-03-06T08:05:29.381Z,3.60
2023-03-06T08:07:55.645Z,3.72
2023-03-06T08:10:21.908Z,3.85
2023-03-06T08:12:48.174Z,3.95
2023-03-06T08:15:14.448Z,4.16
2023-03-06T08:17:40.790Z,4.35
2023-03-06T08:20:07.109Z,4.41
2023-03-06T08:22:33.366Z,4.65
2023-03-06T08:24:59.630Z,4.87
2023-03-06T08:27:25.917Z,4.99
2023-03-06T08:29:52.171Z,5.24
2023-03-06T08:32:18.485Z,5.48
2023-03-06T08:34:44.757Z,5.61
2023-03-06T08:37:11.054Z,5.76
2023-03-06T08:39:37.302Z,5.74
2023-03-06T08:42:03.671Z,5.03
2023-03-06T08:44:30.029Z,4.66
2023-03-06T08:46:56.391Z,4.59
2023-03-06T08:49:22.636Z,4.45
2023-03-06T08:51:49.170Z,3.68
2023-03-06T08:54:15.407Z,3.68
2023-03-06T08:56:41.719Z,4.04
2023-03-06T08:59:08.463Z,4.23
2023-03-06T09:01:37.440Z,4.35
2023-03-06T09:04:03.719Z,4.15
2023-03-06T09:06:30.021Z,4.25
2023-03-06T09:08:57.391Z,4.40
2023-03-06T09:11:23.686Z,4.53
2023-03-06T09:13:50.000Z,4.58
2023-03-06T09:16:16.435Z,4.69
2023-03-06T09:18:42.853Z,4.67
2023-03-06T09:21:09.208Z,4.52
2023-03-06T09:23:35.498Z,4.56
2023-03-06T09:26:01.801Z,4.57
2023-03-06T09:28:28.079Z,4.67
2023-03-06T09:30:54.444Z,4.59
2023-03-06T09:33:20.783Z,4.72
2023-03-06T09:35:47.113Z,4.82
2023-03-06T09:38:13.459Z,4.94
2023-03-06T09:40:39.693Z,5.02
2023-03-06T09:43:05.952Z,5.12
2023-03-06T09:45:32.200Z,5.29
2023-03-06T09:47:58.447Z,5.37
2023-03-06T09:50:24.681Z,5.33
2023-03-06T09:52:50.932Z,5.46
2023-03-06T09:55:17.171Z,5.46
2023-03-06T09:57:43.487Z,5.44
2023-03-06T10:00:09.843Z,5.44
2023-03-06T10:02:37.107Z,5.41
2023-03-06T10:05:05.432Z,5.25
2023-03-06T10:07:32.353Z,5.13
2023-03-06T10:09:58.682Z,4.70
2023-03-06T10:12:25.118Z,4.61
2023-03-06T10:14:51.520Z,4.07
2023-03-06T10:17:18.928Z,4.41
2023-03-06T10:19:45.304Z,4.54
2023-03-06T10:22:11.769Z,4.50
2023-03-06T10:24:38.125Z,4.59
2023-03-06T10:27:04.423Z,4.43
2023-03-06T10:29:30.728Z,4.49
2023-03-06T10:31:57.025Z,4.73
2023-03-06T10:34:23.332Z,4.64
2023-03-06T10:36:49.597Z,4.53
2023-03-06T10:39:15.841Z,4.65
2023-03-06T10:41:42.548Z,4.72
2023-03-06T10:44:09.238Z,4.87
2023-03-06T10:46:35.577Z,5.11
2023-03-06T10:49:01.852Z,5.12
2023-03-06T10:51:28.303Z,5.03
2023-03-06T10:53:54.624Z,4.61
2023-03-06T10:56:20.903Z,4.85
2023-03-06T10:58:47.311Z,4.97
2023-03-06T11:01:13.890Z,5.08
2023-03-06T11:03:40.213Z,5.00
2023-03-06T11:06:12.646Z,5.19
2023-03-06T11:08:39.405Z,5.41
2023-03-06T11:11:05.659Z,4.85
2023-03-06T11:13:31.921Z,5.07
2023-03-06T11:15:58.227Z,5.25
2023-03-06T11:18:24.560Z,5.49
2023-03-06T11:20:52.893Z,5.70
2023-03-06T11:23:19.494Z,5.94
2023-03-06T11:25:45.799Z,6.10
2023-03-06T11:28:12.019Z,5.76
2023-03-06T11:30:38.356Z,6.03
2023-03-06T11:33:04.641Z,5.86
2023-03-06T11:35:30.910Z,5.64
2023-03-06T11:37:57.208Z,5.43
2023-03-06T11:40:23.500Z,5.46
2023-03-06T11:42:49.751Z,5.66
2023-03-06T11:45:16.502Z,5.95
2023-03-06T11:47:42.804Z,6.16
2023-03-06T11:50:09.048Z,6.18
2023-03-06T11:52:35.375Z,6.14
2023-03-06T11:55:01.698Z,6.49
2023-03-06T11:57:28.064Z,6.44
2023-03-06T11:59:55.738Z,6.14
2023-03-06T12:02:22.120Z,6.05
2023-03-06T12:04:48.485Z,6.35
2023-03-06T12:07:14.910Z,6.51
2023-03-06T12:09:42.433Z,6.64
2023-03-06T12:12:08.688Z,6.73
2023-03-06T12:14:35.107Z,6.80
2023-03-06T12:17:03.252Z,6.93
2023-03-06T12:19:29.836Z,7.01
2023-03-06T12:21:56.237Z,7.02
2023-03-06T12:24:22.620Z,6.69
2023-03-06T12:26:49.044Z,6.90
2023-03-06T12:29:15.352Z,7.01
2023-03-06T12:31:41.607Z,7.17
2023-03-06T12:34:07.876Z,7.22
2023-03-06T12:36:34.161Z,7.39
2023-03-06T12:39:00.708Z,7.25
2023-03-06T12:41:27.078Z,7.39
2023-03-06T12:43:53.706Z,7.28
2023-03-06T12:46:20.193Z,7.34
2023-03-06T12:48:46.504Z,7.40
2023-03-06T12:51:12.844Z,7.18
2023-03-06T12:53:39.576Z,7.35
2023-03-06T12:56:05.939Z,7.38
2023-03-06T12:58:33.103Z,7.10
2023-03-06T13:01:04.646Z,7.21
2023-03-06T13:03:31.190Z,7.37
2023-03-06T13:05:57.422Z,7.24
2023-03-06T13:08:23.753Z,7.20
2023-03-06T13:10:50.027Z,7.46
2023-03-06T13:13:16.288Z,7.40
2023-03-06T13:15:42.622Z,7.38
2023-03-06T13:18:08.869Z,7.30
2023-03-06T13:20:35.478Z,7.41
2023-03-06T13:23:01.938Z,7.57
2023-03-06T13:25:28.242Z,7.78
2023-03-06T13:27:54.509Z,7.67
2023-03-06T13:30:20.834Z,7.82
2023-03-06T13:32:47.071Z,7.86
2023-03-06T13:35:13.311Z,7.83
2023-03-06T13:37:39.579Z,7.61
2023-03-06T13:40:05.835Z,7.50
2023-03-06T13:42:32.086Z,7.73
2023-03-06T13:44:58.332Z,7.96
2023-03-06T13:47:24.588Z,8.16
2023-03-06T13:49:50.842Z,8.13
2023-03-06T13:52:17.224Z,7.95
2023-03-06T13:54:43.520Z,8.13
2023-03-06T13:57:09.969Z,8.31
2023-03-06T13:59:36.291Z,7.98
2023-03-06T14:02:02.580Z,8.20
2023-03-06T14:04:28.828Z,8.06
2023-03-06T14:06:55.062Z,8.11
2023-03-06T14:09:21.352Z,8.37
2023-03-06T14:11:47.576Z,8.49
2023-03-06T14:14:13.900Z,8.36
2023-03-06T14:16:49.353Z,8.51
2023-03-06T14:19:15.957Z,8.44
2023-03-06T14:21:42.251Z,8.47
2023-03-06T14:24:08.569Z,8.56
2023-03-06T14:26:34.989Z,8.66
2023-03-06T14:29:01.305Z,8.73
2023-03-06T14:31:27.772Z,8.73
2023-03-06T14:33:54.071Z,8.87
2023-03-06T14:36:20.358Z,8.82
2023-03-06T14:38:46.629Z,8.51
2023-03-06T14:41:14.127Z,8.48
2023-03-06T14:43:42.159Z,8.72
2023-03-06T14:46:08.435Z,8.46
2023-03-06T14:48:34.726Z,8.54
2023-03-06T14:51:01.004Z,8.68
2023-03-06T14:53:27.269Z,8.77
2023-03-06T14:55:53.584Z,8.92
2023-03-06T14:58:19.974Z,9.06
2023-03-06T15:00:46.342Z,9.11
2023-03-06T15:03:12.806Z,9.15
2023-03-06T15:05:39.144Z,9.20
2023-03-06T15:08:05.442Z,9.26
2023-03-06T15:10:31.746Z,9.26
2023-03-06T15:12:59.860Z,9.20
2023-03-06T15:15:26.190Z,9.16
2023-03-06T15:17:52.509Z,8.86
2023-03-06T15:20:18.790Z,8.90
2023-03-06T15:22:45.129Z,8.88
2023-03-06T15:25:11.454Z,8.83
2023-03-06T15:27:37.728Z,8.75
2023-03-06T15:30:04.019Z,8.68
2023-03-06T15:32:30.372Z,8.65
2023-03-06T15:34:56.750Z,8.58
2023-03-06T15:37:23.091Z,8.53
2023-03-06T15:39:49.384Z,8.44
2023-03-06T15:42:15.745Z,8.32
2023-03-06T15:44:42.016Z,8.25
2023-03-06T15:47:09.299Z,8.12
2023-03-06T15:49:35.768Z,7.81
2023-03-06T15:52:02.052Z,7.92
2023-03-06T15:54:28.357Z,7.92
2023-03-06T15:56:54.688Z,7.98
2023-03-06T15:59:21.173Z,7.97
2023-03-06T16:01:47.545Z,7.88
2023-03-06T16:04:16.588Z,7.75
2023-03-06T16:06:44.793Z,7.72
2023-03-06T16:09:11.194Z,7.69
2023-03-06T16:11:44.029Z,7.54
2023-03-06T16:14:10.450Z,7.52
2023-03-06T16:16:36.723Z,7.42
2023-03-06T16:19:03.016Z,7.39
2023-03-06T16:21:29.242Z,7.26
2023-03-06T16:23:55.516Z,7.17
2023-03-06T16:26:21.785Z,7.12
2023-03-06T16:28:48.025Z,7.07
2023-03-06T16:31:14.312Z,7.01
2023-03-06T16:33:40.635Z,6.94
2023-03-06T16:36:06.867Z,6.86
2023-03-06T16:38:33.147Z,6.81
2023-03-06T16:40:59.459Z,6.72
2023-03-06T16:43:25.688Z,6.70
2023-03-06T16:45:51.957Z,6.65
2023-03-06T16:48:18.244Z,6.62
2023-03-06T16:50:44.491Z,6.49
2023-03-06T16:53:10.814Z,6.45
2023-03-06T16:55:37.087Z,6.39
2023-03-06T16:58:03.322Z,6.35
2023-03-06T17:00:31.072Z,6.27
2023-03-06T17:02:57.572Z,6.17
2023-03-06T17:05:23.814Z,6.11
2023-03-06T17:07:50.306Z,6.08
2023-03-06T17:10:16.971Z,6.06
2023-03-06T17:12:47.331Z,5.97
2023-03-06T17:15:13.730Z,5.87
2023-03-06T17:17:40.041Z,5.81
2023-03-06T17:20:06.284Z,5.78
2023-03-06T17:22:32.586Z,5.71
2023-03-06T17:24:58.871Z,5.56
2023-03-06T17:27:25.148Z,5.50
2023-03-06T17:29:51.424Z,5.46
2023-03-06T17:32:17.775Z,5.44
2023-03-06T17:34:44.031Z,5.34
2023-03-06T17:37:10.399Z,5.29
2023-03-06T17:39:36.760Z,5.20
2023-03-06T17:42:03.002Z,5.04
2023-03-06T17:44:29.288Z,4.98
2023-03-06T17:46:55.558Z,4.88
2023-03-06T17:49:21.816Z,4.76
2023-03-06T17:51:48.145Z,4.69
2023-03-06T17:54:14.432Z,4.67
2023-03-06T17:56:40.682Z,4.70
2023-03-06T17:59:06.952Z,4.72
2023-03-06T18:01:33.273Z,4.68
2023-03-06T18:04:01.152Z,4.68
2023-03-06T18:06:27.407Z,4.54
2023-03-06T18:08:53.648Z,4.58
2023-03-06T18:11:19.888Z,4.58
2023-03-06T18:13:46.198Z,4.56
2023-03-06T18:16:12.637Z,4.49
2023-03-06T18:18:38.895Z,4.51
2023-03-06T18:21:05.158Z,4.59
2023-03-06T18:23:31.397Z,4.52
2023-03-06T18:25:57.641Z,4.48
2023-03-06T18:28:23.874Z,4.47
2023-03-06T18:30:50.123Z,4.48
2023-03-06T18:33:16.390Z,4.41
2023-03-06T18:35:42.675Z,4.42
2023-03-06T18:38:09.010Z,4.43
2023-03-06T18:40:35.318Z,4.41
2023-03-06T18:43:01.602Z,4.28
2023-03-06T18:45:27.987Z,4.22
2023-03-06T18:47:54.982Z,4.34
2023-03-06T18:50:21.216Z,4.33
2023-03-06T18:52:47.750Z,4.36
2023-03-06T18:55:14.079Z,4.39
2023-03-06T18:57:40.330Z,4.33
2023-03-06T19:00:06.571Z,4.28
2023-03-06T19:02:32.833Z,4.28
2023-03-06T19:04:59.083Z,4.28
2023-03-06T19:07:25.363Z,4.24
2023-03-06T19:09:51.647Z,4.11
2023-03-06T19:12:17.896Z,3.97
2023-03-06T19:14:44.146Z,4.02
2023-03-06T19:17:10.410Z,3.99
2023-03-06T19:19:36.674Z,4.03
2023-03-06T19:22:02.911Z,4.03
2023-03-06T19:24:29.214Z,3.99
2023-03-06T19:26:56.397Z,3.94
2023-03-06T19:29:22.833Z,3.91
2023-03-06T19:31:49.150Z,3.90
2023-03-06T19:34:15.435Z,3.89
2023-03-06T19:36:41.687Z,3.80
2023-03-06T19:39:07.991Z,3.74
2023-03-06T19:41:34.304Z,3.71
2023-03-06T19:44:00.555Z,3.74
2023-03-06T19:46:26.837Z,3.66
2023-03-06T19:48:53.109Z,3.61
2023-03-06T19:51:19.353Z,3.62
2023-03-06T19:53:45.621Z,3.61
2023-03-06T19:56:11.853Z,3.62
2023-03-06T19:58:38.093Z,3.62
2023-03-06T20:01:04.404Z,3.59
2023-03-06T20:03:30.693Z,3.51
2023-03-06T20:05:56.933Z,3.52
2023-03-06T20:08:23.237Z,3.50
2023-03-06T20:10:49.545Z,3.51
2023-03-06T20:13:15.792Z,3.50
2023-03-06T20:15:42.108Z,3.47
2023-03-06T20:18:08.392Z,3.39
2023-03-06T20:20:34.647Z,3.38
2023-03-06T20:23:00.903Z,3.40
2023-03-06T20:25:27.152Z,3.35
2023-03-06T20:27:53.385Z,3.34
2023-03-06T20:30:19.608Z,3.31
2023-03-06T20:32:45.888Z,3.20
2023-03-06T20:35:12.146Z,3.22
2023-03-06T20:37:38.439Z,3.24
2023-03-06T20:40:04.760Z,3.29
2023-03-06T20:42:31.055Z,3.22
2023-03-06T20:44:57.356Z,3.28
2023-03-06T20:47:23.643Z,3.25
2023-03-06T20:49:49.892Z,3.36
2023-03-06T20:52:16.311Z,3.34
2023-03-06T20:54:42.629Z,3.28
2023-03-06T20:57:08.992Z,3.27
2023-03-06T20:59:35.266Z,3.24
2023-03-06T21:02:01.661Z,3.15
2023-03-06T21:04:28.036Z,3.14
2023-03-06T21:06:54.293Z,3.14
2023-03-06T21:09:20.574Z,2.97
2023-03-06T21:11:46.865Z,2.76
2023-03-06T21:14:13.149Z,2.79
2023-03-06T21:16:39.476Z,2.56
2023-03-06T21:19:05.771Z,2.69
2023-03-06T21:21:32.043Z,2.71
2023-03-06T21:23:58.322Z,2.75
2023-03-06T21:26:24.598Z,2.78
2023-03-06T21:28:50.876Z,2.69
2023-03-06T21:31:17.192Z,2.65
2023-03-06T21:33:43.461Z,2.60
2023-03-06T21:36:09.688Z,2.72
2023-03-06T21:38:38.895Z,2.75
2023-03-06T21:41:05.237Z,2.74
2023-03-06T21:43:31.485Z,2.75
2023-03-06T21:45:57.777Z,2.63
2023-03-06T21:48:24.072Z,2.64
2023-03-06T21:50:50.321Z,2.70
2023-03-06T21:53:16.601Z,2.69
2023-03-06T21:55:42.845Z,2.61
2023-03-06T21:58:09.081Z,2.64
2023-03-06T22:00:35.357Z,2.55
2023-03-06T22:03:01.645Z,2.37
2023-03-06T22:05:27.925Z,2.06
2023-03-06T22:07:54.206Z,1.96
2023-03-06T22:10:20.503Z,1.56
2023-03-06T22:12:46.804Z,1.47
2023-03-06T22:15:13.096Z,1.52
2023-03-06T22:17:39.398Z,1.66
2023-03-06T22:20:05.789Z,1.72
2023-03-06T22:22:32.613Z,1.78
2023-03-06T22:24:58.893Z,1.83
2023-03-06T22:27:25.124Z,1.81
2023-03-06T22:29:51.393Z,1.70
2023-03-06T22:32:17.804Z,1.68
2023-03-06T22:34:44.160Z,1.73
2023-03-06T22:37:10.406Z,1.72
2023-03-06T22:39:36.670Z,1.65
2023-03-06T22:42:02.907Z,1.69
2023-03-06T22:44:29.140Z,1.68
2023-03-06T22:46:55.421Z,1.75
2023-03-06T22:49:21.673Z,1.72
2023-03-06T22:51:47.891Z,1.73
2023-03-06T22:54:14.156Z,1.63
2023-03-06T22:56:40.398Z,1.53
2023-03-06T22:59:07.806Z,1.58
2023-03-06T23:01:34.112Z,1.40
2023-03-06T23:04:00.433Z,1.33
2023-03-06T23:06:26.737Z,1.31
2023-03-06T23:08:52.980Z,1.40
2023-03-06T23:11:19.239Z,1.44
2023-03-06T23:13:46.224Z,1.37
2023-03-06T23:16:12.494Z,1.27
2023-03-06T23:18:38.752Z,1.23
2023-03-06T23:21:04.977Z,1.26
2023-03-06T23:23:31.264Z,1.34
2023-03-06T23:25:57.544Z,1.39
2023-03-06T23:28:23.792Z,1.41
2023-03-06T23:30:50.080Z,1.38
2023-03-06T23:33:16.378Z,1.28
2023-03-06T23:35:42.628Z,1.24
2023-03-06T23:38:08.895Z,1.14
2023-03-06T23:40:35.134Z,1.03
2023-03-06T23:43:01.384Z,1.13
2023-03-06T23:45:27.663Z,1.18
2023-03-06T23:47:53.911Z,1.18
2023-03-06T23:50:20.239Z,1.14
2023-03-06T23:52:46.496Z,1.18
2023-03-06T23:55:12.778Z,1.17
2023-03-06T23:57:39.013Z,1.11
